sensor_id;sensor_type;location;lat;lon;timestamp;P1;durP1;ratioP1;P2;durP2;ratioP2
3052;SDS011;1536;51.098;6.414;2023-02-13T00:00:24;14.32;;;11.30;;
3052;SDS011;1536;51.098;6.414;2023-02-13T00:02:51;14.45;;;11.10;;
3052;SDS011;1536;51.098;6.414;2023-02-13T00:05:17;18.77;;;12.73;;
3052;SDS011;1536;51.098;6.414;2023-02-13T00:07:44;14.80;;;11.65;;
3052;SDS011;1536;51.098;6.414;2023-02-13T00:10:11;16.30;;;11.57;;
3052;SDS011;1536;51.098;6.414;2023-02-13T00:12:39;18.65;;;11.98;;
3052;SDS011;1536;51.098;6.414;2023-02-13T00:15:06;17.17;;;12.32;;
3052;SDS011;1536;51.098;6.414;2023-02-13T00:17:34;18.17;;;11.85;;
3052;SDS011;1536;51.098;6.414;2023-02-13T00:20:01;16.95;;;12.25;;
3052;SDS011;1536;51.098;6.414;2023-02-13T00:22:27;18.25;;;12.90;;
3052;SDS011;1536;51.098;6.414;2023-02-13T00:24:54;13.95;;;10.93;;
3052;SDS011;1536;51.098;6.414;2023-02-13T00:27:21;17.23;;;13.20;;
3052;SDS011;1536;51.098;6.414;2023-02-13T00:29:49;20.70;;;15.05;;
3052;SDS011;1536;51.098;6.414;2023-02-13T00:32:16;16.95;;;12.52;;
3052;SDS011;1536;51.098;6.414;2023-02-13T00:34:42;17.95;;;13.70;;
3052;SDS011;1536;51.098;6.414;2023-02-13T00:37:09;19.73;;;13.65;;
3052;SDS011;1536;51.098;6.414;2023-02-13T00:39:36;17.70;;;13.90;;
3052;SDS011;1536;51.098;6.414;2023-02-13T00:42:03;20.35;;;14.02;;
3052;SDS011;1536;51.098;6.414;2023-02-13T00:44:30;20.60;;;13.57;;
3052;SDS011;1536;51.098;6.414;2023-02-13T00:46:58;22.75;;;15.15;;
3052;SDS011;1536;51.098;6.414;2023-02-13T00:49:25;18.95;;;14.45;;
3052;SDS011;1536;51.098;6.414;2023-02-13T00:51:51;21.75;;;15.35;;
3052;SDS011;1536;51.098;6.414;2023-02-13T00:54:18;19.38;;;14.00;;
3052;SDS011;1536;51.098;6.414;2023-02-13T00:56:45;22.73;;;14.00;;
3052;SDS011;1536;51.098;6.414;2023-02-13T00:59:12;17.85;;;13.25;;
3052;SDS011;1536;51.098;6.414;2023-02-13T01:01:38;21.60;;;15.57;;
3052;SDS011;1536;51.098;6.414;2023-02-13T01:04:06;20.40;;;14.38;;
3052;SDS011;1536;51.098;6.414;2023-02-13T01:06:33;19.40;;;14.57;;
3052;SDS011;1536;51.098;6.414;2023-02-13T01:09:01;18.98;;;14.88;;
3052;SDS011;1536;51.098;6.414;2023-02-13T01:11:29;20.20;;;14.95;;
3052;SDS011;1536;51.098;6.414;2023-02-13T01:13:56;21.27;;;14.60;;
3052;SDS011;1536;51.098;6.414;2023-02-13T01:16:22;19.50;;;14.60;;
3052;SDS011;1536;51.098;6.414;2023-02-13T01:18:49;24.33;;;14.55;;
3052;SDS011;1536;51.098;6.414;2023-02-13T01:21:18;24.15;;;15.23;;
3052;SDS011;1536;51.098;6.414;2023-02-13T01:23:47;18.98;;;13.73;;
3052;SDS011;1536;51.098;6.414;2023-02-13T01:26:16;21.50;;;15.20;;
3052;SDS011;1536;51.098;6.414;2023-02-13T01:28:44;22.55;;;15.00;;
3052;SDS011;1536;51.098;6.414;2023-02-13T01:31:11;27.85;;;16.75;;
3052;SDS011;1536;51.098;6.414;2023-02-13T01:33:38;19.02;;;14.30;;
3052;SDS011;1536;51.098;6.414;2023-02-13T01:36:05;22.13;;;15.07;;
3052;SDS011;1536;51.098;6.414;2023-02-13T01:38:34;19.55;;;14.23;;
3052;SDS011;1536;51.098;6.414;2023-02-13T01:41:01;20.00;;;15.00;;
3052;SDS011;1536;51.098;6.414;2023-02-13T01:43:41;19.63;;;13.30;;
3052;SDS011;1536;51.098;6.414;2023-02-13T01:46:10;23.20;;;15.25;;
3052;SDS011;1536;51.098;6.414;2023-02-13T01:48:39;24.83;;;16.50;;
3052;SDS011;1536;51.098;6.414;2023-02-13T01:51:06;21.27;;;15.95;;
3052;SDS011;1536;51.098;6.414;2023-02-13T01:53:38;21.73;;;15.70;;
3052;SDS011;1536;51.098;6.414;2023-02-13T01:56:11;21.67;;;14.65;;
3052;SDS011;1536;51.098;6.414;2023-02-13T01:58:45;20.13;;;15.38;;
3052;SDS011;1536;51.098;6.414;2023-02-13T02:01:15;21.98;;;15.93;;
3052;SDS011;1536;51.098;6.414;2023-02-13T02:03:44;25.38;;;16.02;;
3052;SDS011;1536;51.098;6.414;2023-02-13T02:06:15;23.15;;;15.63;;
3052;SDS011;1536;51.098;6.414;2023-02-13T02:08:47;25.30;;;17.48;;
3052;SDS011;1536;51.098;6.414;2023-02-13T02:11:16;22.52;;;15.15;;
3052;SDS011;1536;51.098;6.414;2023-02-13T02:13:50;28.90;;;17.35;;
3052;SDS011;1536;51.098;6.414;2023-02-13T02:16:18;25.73;;;16.05;;
3052;SDS011;1536;51.098;6.414;2023-02-13T02:18:44;22.85;;;15.60;;
3052;SDS011;1536;51.098;6.414;2023-02-13T02:21:21;27.45;;;16.95;;
3052;SDS011;1536;51.098;6.414;2023-02-13T02:24:18;27.70;;;15.50;;
3052;SDS011;1536;51.098;6.414;2023-02-13T02:30:25;21.00;;;15.13;;
3052;SDS011;1536;51.098;6.414;2023-02-13T02:33:25;22.85;;;15.82;;
3052;SDS011;1536;51.098;6.414;2023-02-13T02:36:00;23.13;;;15.68;;
3052;SDS011;1536;51.098;6.414;2023-02-13T02:38:50;19.88;;;14.52;;
3052;SDS011;1536;51.098;6.414;2023-02-13T02:41:28;24.80;;;14.88;;
3052;SDS011;1536;51.098;6.414;2023-02-13T02:44:14;24.83;;;17.50;;
3052;SDS011;1536;51.098;6.414;2023-02-13T02:46:57;22.38;;;15.35;;
3052;SDS011;1536;51.098;6.414;2023-02-13T02:50:05;20.95;;;14.52;;
3052;SDS011;1536;51.098;6.414;2023-02-13T02:52:54;21.08;;;14.18;;
3052;SDS011;1536;51.098;6.414;2023-02-13T02:55:31;22.30;;;14.02;;
3052;SDS011;1536;51.098;6.414;2023-02-13T02:58:04;21.75;;;14.52;;
3052;SDS011;1536;51.098;6.414;2023-02-13T03:00:54;20.42;;;14.52;;
3052;SDS011;1536;51.098;6.414;2023-02-13T03:03:41;25.30;;;15.45;;
3052;SDS011;1536;51.098;6.414;2023-02-13T03:06:29;24.48;;;15.07;;
3052;SDS011;1536;51.098;6.414;2023-02-13T03:09:02;20.33;;;13.75;;
3052;SDS011;1536;51.098;6.414;2023-02-13T03:11:50;21.40;;;14.05;;
3052;SDS011;1536;51.098;6.414;2023-02-13T03:14:37;21.80;;;13.10;;
3052;SDS011;1536;51.098;6.414;2023-02-13T03:17:04;25.50;;;13.30;;
3052;SDS011;1536;51.098;6.414;2023-02-13T03:19:54;18.48;;;14.00;;
3052;SDS011;1536;51.098;6.414;2023-02-13T03:22:48;19.58;;;13.07;;
3052;SDS011;1536;51.098;6.414;2023-02-13T03:25:27;21.17;;;13.75;;
3052;SDS011;1536;51.098;6.414;2023-02-13T03:28:00;18.60;;;14.68;;
3052;SDS011;1536;51.098;6.414;2023-02-13T03:30:54;22.13;;;14.15;;
3052;SDS011;1536;51.098;6.414;2023-02-13T03:36:15;17.75;;;12.93;;
3052;SDS011;1536;51.098;6.414;2023-02-13T03:39:08;19.20;;;13.52;;
3052;SDS011;1536;51.098;6.414;2023-02-13T03:41:40;20.75;;;14.85;;
3052;SDS011;1536;51.098;6.414;2023-02-13T03:44:12;19.80;;;14.38;;
3052;SDS011;1536;51.098;6.414;2023-02-13T03:46:44;22.85;;;13.75;;
3052;SDS011;1536;51.098;6.414;2023-02-13T03:49:16;20.33;;;13.15;;
3052;SDS011;1536;51.098;6.414;2023-02-13T03:52:05;20.67;;;13.60;;
3052;SDS011;1536;51.098;6.414;2023-02-13T03:54:40;23.50;;;15.07;;
3052;SDS011;1536;51.098;6.414;2023-02-13T03:57:28;22.38;;;14.25;;
3052;SDS011;1536;51.098;6.414;2023-02-13T04:00:16;19.45;;;12.55;;
3052;SDS011;1536;51.098;6.414;2023-02-13T04:02:47;19.75;;;13.27;;
3052;SDS011;1536;51.098;6.414;2023-02-13T04:05:23;17.98;;;13.77;;
3052;SDS011;1536;51.098;6.414;2023-02-13T04:07:54;21.85;;;14.25;;
3052;SDS011;1536;51.098;6.414;2023-02-13T04:10:23;20.05;;;13.25;;
3052;SDS011;1536;51.098;6.414;2023-02-13T04:12:56;21.15;;;14.55;;
3052;SDS011;1536;51.098;6.414;2023-02-13T04:15:28;22.38;;;14.10;;
3052;SDS011;1536;51.098;6.414;2023-02-13T04:18:01;19.95;;;14.65;;
3052;SDS011;1536;51.098;6.414;2023-02-13T04:20:31;20.00;;;12.85;;
3052;SDS011;1536;51.098;6.414;2023-02-13T04:23:02;19.92;;;14.13;;
3052;SDS011;1536;51.098;6.414;2023-02-13T04:25:32;20.45;;;14.80;;
3052;SDS011;1536;51.098;6.414;2023-02-13T04:27:59;21.25;;;13.95;;
3052;SDS011;1536;51.098;6.414;2023-02-13T04:30:38;18.95;;;14.27;;
3052;SDS011;1536;51.098;6.414;2023-02-13T04:33:04;17.70;;;13.07;;
3052;SDS011;1536;51.098;6.414;2023-02-13T04:35:31;24.85;;;13.07;;
3052;SDS011;1536;51.098;6.414;2023-02-13T04:37:59;17.80;;;13.40;;
3052;SDS011;1536;51.098;6.414;2023-02-13T04:40:26;18.83;;;13.05;;
3052;SDS011;1536;51.098;6.414;2023-02-13T04:42:54;19.05;;;13.43;;
3052;SDS011;1536;51.098;6.414;2023-02-13T04:45:21;20.67;;;14.18;;
3052;SDS011;1536;51.098;6.414;2023-02-13T04:47:51;18.40;;;12.88;;
3052;SDS011;1536;51.098;6.414;2023-02-13T04:50:19;19.38;;;14.15;;
3052;SDS011;1536;51.098;6.414;2023-02-13T04:52:46;18.70;;;13.20;;
3052;SDS011;1536;51.098;6.414;2023-02-13T04:55:13;19.63;;;13.07;;
3052;SDS011;1536;51.098;6.414;2023-02-13T04:57:39;17.98;;;13.63;;
3052;SDS011;1536;51.098;6.414;2023-02-13T05:00:08;25.25;;;15.80;;
3052;SDS011;1536;51.098;6.414;2023-02-13T05:02:36;18.52;;;13.50;;
3052;SDS011;1536;51.098;6.414;2023-02-13T05:05:02;21.85;;;14.63;;
3052;SDS011;1536;51.098;6.414;2023-02-13T05:07:29;19.48;;;13.02;;
3052;SDS011;1536;51.098;6.414;2023-02-13T05:09:56;19.85;;;14.38;;
3052;SDS011;1536;51.098;6.414;2023-02-13T05:12:23;22.17;;;15.07;;
3052;SDS011;1536;51.098;6.414;2023-02-13T05:14:49;17.90;;;12.70;;
3052;SDS011;1536;51.098;6.414;2023-02-13T05:17:17;21.48;;;15.52;;
3052;SDS011;1536;51.098;6.414;2023-02-13T05:19:44;22.50;;;13.80;;
3052;SDS011;1536;51.098;6.414;2023-02-13T05:22:11;20.80;;;13.55;;
3052;SDS011;1536;51.098;6.414;2023-02-13T05:24:55;18.15;;;13.05;;
3052;SDS011;1536;51.098;6.414;2023-02-13T05:27:22;24.60;;;14.27;;
3052;SDS011;1536;51.098;6.414;2023-02-13T05:29:48;16.02;;;12.55;;
3052;SDS011;1536;51.098;6.414;2023-02-13T05:32:15;24.23;;;15.18;;
3052;SDS011;1536;51.098;6.414;2023-02-13T05:34:44;20.77;;;14.07;;
3052;SDS011;1536;51.098;6.414;2023-02-13T05:37:10;18.15;;;13.57;;
3052;SDS011;1536;51.098;6.414;2023-02-13T05:39:37;32.10;;;14.68;;
3052;SDS011;1536;51.098;6.414;2023-02-13T05:42:04;18.75;;;13.77;;
3052;SDS011;1536;51.098;6.414;2023-02-13T05:44:30;19.27;;;14.05;;
3052;SDS011;1536;51.098;6.414;2023-02-13T05:46:57;22.75;;;15.88;;
3052;SDS011;1536;51.098;6.414;2023-02-13T05:49:25;19.25;;;13.73;;
3052;SDS011;1536;51.098;6.414;2023-02-13T05:51:52;21.23;;;14.75;;
3052;SDS011;1536;51.098;6.414;2023-02-13T05:54:19;19.45;;;13.70;;
3052;SDS011;1536;51.098;6.414;2023-02-13T05:56:46;19.60;;;15.20;;
3052;SDS011;1536;51.098;6.414;2023-02-13T05:59:12;24.27;;;15.18;;
3052;SDS011;1536;51.098;6.414;2023-02-13T06:01:39;24.10;;;14.52;;
3052;SDS011;1536;51.098;6.414;2023-02-13T06:04:06;21.08;;;14.18;;
3052;SDS011;1536;51.098;6.414;2023-02-13T06:09:02;27.20;;;16.05;;
3052;SDS011;1536;51.098;6.414;2023-02-13T06:11:28;20.75;;;15.07;;
3052;SDS011;1536;51.098;6.414;2023-02-13T06:13:55;22.48;;;16.67;;
3052;SDS011;1536;51.098;6.414;2023-02-13T06:16:22;28.77;;;13.85;;
3052;SDS011;1536;51.098;6.414;2023-02-13T06:18:48;23.00;;;15.20;;
3052;SDS011;1536;51.098;6.414;2023-02-13T06:21:15;19.98;;;15.10;;
3052;SDS011;1536;51.098;6.414;2023-02-13T06:23:43;23.02;;;15.48;;
3052;SDS011;1536;51.098;6.414;2023-02-13T06:26:10;23.92;;;16.33;;
3052;SDS011;1536;51.098;6.414;2023-02-13T06:28:36;22.10;;;15.90;;
3052;SDS011;1536;51.098;6.414;2023-02-13T06:31:03;23.70;;;16.50;;
3052;SDS011;1536;51.098;6.414;2023-02-13T06:33:30;23.00;;;16.70;;
3052;SDS011;1536;51.098;6.414;2023-02-13T06:35:57;21.48;;;15.60;;
3052;SDS011;1536;51.098;6.414;2023-02-13T06:38:24;26.15;;;17.73;;
3052;SDS011;1536;51.098;6.414;2023-02-13T06:40:52;24.58;;;16.15;;
3052;SDS011;1536;51.098;6.414;2023-02-13T06:43:25;26.52;;;16.08;;
3052;SDS011;1536;51.098;6.414;2023-02-13T06:45:51;29.45;;;16.95;;
3052;SDS011;1536;51.098;6.414;2023-02-13T06:48:18;23.77;;;16.17;;
3052;SDS011;1536;51.098;6.414;2023-02-13T06:50:45;20.85;;;15.75;;
3052;SDS011;1536;51.098;6.414;2023-02-13T06:53:12;25.63;;;15.85;;
3052;SDS011;1536;51.098;6.414;2023-02-13T06:55:39;22.48;;;15.68;;
3052;SDS011;1536;51.098;6.414;2023-02-13T06:58:07;21.10;;;14.90;;
3052;SDS011;1536;51.098;6.414;2023-02-13T07:00:33;26.55;;;16.95;;
3052;SDS011;1536;51.098;6.414;2023-02-13T07:03:02;21.88;;;15.40;;
3052;SDS011;1536;51.098;6.414;2023-02-13T07:05:29;22.63;;;15.35;;
3052;SDS011;1536;51.098;6.414;2023-02-13T07:07:56;19.20;;;14.77;;
3052;SDS011;1536;51.098;6.414;2023-02-13T07:10:23;24.95;;;15.35;;
3052;SDS011;1536;51.098;6.414;2023-02-13T07:12:50;24.17;;;15.57;;
3052;SDS011;1536;51.098;6.414;2023-02-13T07:15:18;21.58;;;14.43;;
3052;SDS011;1536;51.098;6.414;2023-02-13T07:17:44;27.00;;;14.65;;
3052;SDS011;1536;51.098;6.414;2023-02-13T07:20:11;23.13;;;15.02;;
3052;SDS011;1536;51.098;6.414;2023-02-13T07:22:38;21.77;;;14.70;;
3052;SDS011;1536;51.098;6.414;2023-02-13T07:25:05;27.70;;;13.70;;
3052;SDS011;1536;51.098;6.414;2023-02-13T07:27:32;19.60;;;13.05;;
3052;SDS011;1536;51.098;6.414;2023-02-13T07:29:59;26.27;;;15.40;;
3052;SDS011;1536;51.098;6.414;2023-02-13T07:32:27;22.13;;;13.43;;
3052;SDS011;1536;51.098;6.414;2023-02-13T07:34:54;22.45;;;14.30;;
3052;SDS011;1536;51.098;6.414;2023-02-13T07:37:20;17.40;;;13.30;;
3052;SDS011;1536;51.098;6.414;2023-02-13T07:39:47;18.10;;;14.43;;
3052;SDS011;1536;51.098;6.414;2023-02-13T07:42:14;18.67;;;13.85;;
3052;SDS011;1536;51.098;6.414;2023-02-13T07:44:41;18.23;;;12.70;;
3052;SDS011;1536;51.098;6.414;2023-02-13T07:47:07;19.33;;;13.35;;
3052;SDS011;1536;51.098;6.414;2023-02-13T07:49:35;18.67;;;13.73;;
3052;SDS011;1536;51.098;6.414;2023-02-13T07:52:02;21.95;;;14.43;;
3052;SDS011;1536;51.098;6.414;2023-02-13T07:54:29;22.77;;;14.30;;
3052;SDS011;1536;51.098;6.414;2023-02-13T07:56:56;17.42;;;14.07;;
3052;SDS011;1536;51.098;6.414;2023-02-13T07:59:22;18.73;;;13.50;;
3052;SDS011;1536;51.098;6.414;2023-02-13T08:01:50;25.08;;;12.90;;
3052;SDS011;1536;51.098;6.414;2023-02-13T08:04:16;21.52;;;14.80;;
3052;SDS011;1536;51.098;6.414;2023-02-13T08:06:44;19.50;;;13.63;;
3052;SDS011;1536;51.098;6.414;2023-02-13T08:09:13;27.95;;;15.02;;
3052;SDS011;1536;51.098;6.414;2023-02-13T08:12:02;22.90;;;14.27;;
3052;SDS011;1536;51.098;6.414;2023-02-13T08:14:31;21.35;;;14.45;;
3052;SDS011;1536;51.098;6.414;2023-02-13T08:16:58;22.33;;;14.80;;
3052;SDS011;1536;51.098;6.414;2023-02-13T08:19:25;22.73;;;15.52;;
3052;SDS011;1536;51.098;6.414;2023-02-13T08:21:53;21.92;;;14.68;;
3052;SDS011;1536;51.098;6.414;2023-02-13T08:24:20;21.45;;;15.73;;
3052;SDS011;1536;51.098;6.414;2023-02-13T08:26:47;20.80;;;14.52;;
3052;SDS011;1536;51.098;6.414;2023-02-13T08:29:13;19.35;;;13.80;;
3052;SDS011;1536;51.098;6.414;2023-02-13T08:31:40;19.23;;;14.50;;
3052;SDS011;1536;51.098;6.414;2023-02-13T08:34:07;18.75;;;14.93;;
3052;SDS011;1536;51.098;6.414;2023-02-13T08:36:34;20.83;;;13.95;;
3052;SDS011;1536;51.098;6.414;2023-02-13T08:39:02;19.55;;;13.82;;
3052;SDS011;1536;51.098;6.414;2023-02-13T08:41:29;21.70;;;14.02;;
3052;SDS011;1536;51.098;6.414;2023-02-13T08:43:56;18.38;;;13.60;;
3052;SDS011;1536;51.098;6.414;2023-02-13T08:46:22;24.25;;;15.68;;
3052;SDS011;1536;51.098;6.414;2023-02-13T08:48:49;19.73;;;15.07;;
3052;SDS011;1536;51.098;6.414;2023-02-13T08:51:16;17.13;;;13.90;;
3052;SDS011;1536;51.098;6.414;2023-02-13T08:53:43;18.73;;;14.10;;
3052;SDS011;1536;51.098;6.414;2023-02-13T08:56:11;24.05;;;15.10;;
3052;SDS011;1536;51.098;6.414;2023-02-13T08:58:38;16.85;;;13.20;;
3052;SDS011;1536;51.098;6.414;2023-02-13T09:01:05;17.13;;;13.38;;
3052;SDS011;1536;51.098;6.414;2023-02-13T09:03:32;21.67;;;14.00;;
3052;SDS011;1536;51.098;6.414;2023-02-13T09:06:00;18.08;;;14.20;;
3052;SDS011;1536;51.098;6.414;2023-02-13T09:08:27;22.92;;;14.82;;
3052;SDS011;1536;51.098;6.414;2023-02-13T09:10:54;21.20;;;14.85;;
3052;SDS011;1536;51.098;6.414;2023-02-13T09:13:24;17.67;;;13.85;;
3052;SDS011;1536;51.098;6.414;2023-02-13T09:15:51;24.25;;;15.70;;
3052;SDS011;1536;51.098;6.414;2023-02-13T09:18:17;15.02;;;12.40;;
3052;SDS011;1536;51.098;6.414;2023-02-13T09:20:44;16.48;;;13.13;;
3052;SDS011;1536;51.098;6.414;2023-02-13T09:23:11;21.75;;;15.55;;
3052;SDS011;1536;51.098;6.414;2023-02-13T09:25:38;18.38;;;13.60;;
3052;SDS011;1536;51.098;6.414;2023-02-13T09:28:04;21.83;;;15.15;;
3052;SDS011;1536;51.098;6.414;2023-02-13T09:30:32;16.08;;;13.05;;
3052;SDS011;1536;51.098;6.414;2023-02-13T09:32:59;20.90;;;13.43;;
3052;SDS011;1536;51.098;6.414;2023-02-13T09:35:26;21.15;;;14.90;;
3052;SDS011;1536;51.098;6.414;2023-02-13T09:37:53;21.00;;;14.52;;
3052;SDS011;1536;51.098;6.414;2023-02-13T09:40:21;20.90;;;14.48;;
3052;SDS011;1536;51.098;6.414;2023-02-13T09:42:51;19.08;;;14.85;;
3052;SDS011;1536;51.098;6.414;2023-02-13T09:45:19;17.63;;;14.30;;
3052;SDS011;1536;51.098;6.414;2023-02-13T09:47:48;19.48;;;14.38;;
3052;SDS011;1536;51.098;6.414;2023-02-13T09:50:16;16.85;;;13.75;;
3052;SDS011;1536;51.098;6.414;2023-02-13T09:52:46;18.63;;;14.57;;
3052;SDS011;1536;51.098;6.414;2023-02-13T09:55:16;20.25;;;14.57;;
3052;SDS011;1536;51.098;6.414;2023-02-13T09:57:46;16.52;;;13.30;;
3052;SDS011;1536;51.098;6.414;2023-02-13T10:00:20;19.80;;;14.13;;
3052;SDS011;1536;51.098;6.414;2023-02-13T10:03:01;19.52;;;14.45;;
3052;SDS011;1536;51.098;6.414;2023-02-13T10:05:41;17.95;;;14.45;;
3052;SDS011;1536;51.098;6.414;2023-02-13T10:08:20;23.85;;;15.48;;
3052;SDS011;1536;51.098;6.414;2023-02-13T10:10:59;16.80;;;14.25;;
3052;SDS011;1536;51.098;6.414;2023-02-13T10:13:40;17.25;;;13.80;;
3052;SDS011;1536;51.098;6.414;2023-02-13T10:16:31;17.77;;;13.73;;
3052;SDS011;1536;51.098;6.414;2023-02-13T10:19:03;15.95;;;12.77;;
3052;SDS011;1536;51.098;6.414;2023-02-13T10:21:39;17.48;;;13.88;;
3052;SDS011;1536;51.098;6.414;2023-02-13T10:24:13;23.13;;;14.47;;
3052;SDS011;1536;51.098;6.414;2023-02-13T10:26:46;16.70;;;13.57;;
3052;SDS011;1536;51.098;6.414;2023-02-13T10:29:14;19.35;;;12.82;;
3052;SDS011;1536;51.098;6.414;2023-02-13T10:32:05;18.20;;;14.30;;
3052;SDS011;1536;51.098;6.414;2023-02-13T10:34:36;16.63;;;12.43;;
3052;SDS011;1536;51.098;6.414;2023-02-13T10:37:10;18.13;;;13.13;;
3052;SDS011;1536;51.098;6.414;2023-02-13T10:39:40;14.30;;;11.95;;
3052;SDS011;1536;51.098;6.414;2023-02-13T10:42:12;18.98;;;13.07;;
3052;SDS011;1536;51.098;6.414;2023-02-13T10:44:50;18.23;;;12.23;;
3052;SDS011;1536;51.098;6.414;2023-02-13T10:47:34;15.02;;;11.40;;
3052;SDS011;1536;51.098;6.414;2023-02-13T10:50:17;24.73;;;13.48;;
3052;SDS011;1536;51.098;6.414;2023-02-13T10:52:54;21.55;;;12.68;;
3052;SDS011;1536;51.098;6.414;2023-02-13T10:55:35;15.50;;;11.70;;
3052;SDS011;1536;51.098;6.414;2023-02-13T10:58:14;18.97;;;12.97;;
3052;SDS011;1536;51.098;6.414;2023-02-13T11:00:45;15.43;;;11.10;;
3052;SDS011;1536;51.098;6.414;2023-02-13T11:03:18;16.27;;;11.98;;
3052;SDS011;1536;51.098;6.414;2023-02-13T11:05:48;19.60;;;12.53;;
3052;SDS011;1536;51.098;6.414;2023-02-13T11:08:17;17.02;;;12.90;;
3052;SDS011;1536;51.098;6.414;2023-02-13T11:10:46;16.67;;;12.00;;
3052;SDS011;1536;51.098;6.414;2023-02-13T11:13:14;19.90;;;13.18;;
3052;SDS011;1536;51.098;6.414;2023-02-13T11:15:43;19.43;;;13.00;;
3052;SDS011;1536;51.098;6.414;2023-02-13T11:18:22;18.83;;;13.53;;
3052;SDS011;1536;51.098;6.414;2023-02-13T11:20:58;19.10;;;12.47;;
3052;SDS011;1536;51.098;6.414;2023-02-13T11:23:38;17.90;;;13.20;;
3052;SDS011;1536;51.098;6.414;2023-02-13T11:26:09;13.63;;;10.57;;
3052;SDS011;1536;51.098;6.414;2023-02-13T11:28:44;16.00;;;12.33;;
3052;SDS011;1536;51.098;6.414;2023-02-13T11:31:18;19.10;;;14.50;;
3052;SDS011;1536;51.098;6.414;2023-02-13T11:33:48;18.10;;;13.15;;
3052;SDS011;1536;51.098;6.414;2023-02-13T11:36:21;16.95;;;11.10;;
3052;SDS011;1536;51.098;6.414;2023-02-13T11:39:00;15.83;;;12.10;;
3052;SDS011;1536;51.098;6.414;2023-02-13T11:41:30;17.57;;;13.07;;
3052;SDS011;1536;51.098;6.414;2023-02-13T11:44:04;15.40;;;11.10;;
3052;SDS011;1536;51.098;6.414;2023-02-13T11:47:00;15.25;;;11.75;;
3052;SDS011;1536;51.098;6.414;2023-02-13T11:49:28;16.57;;;11.47;;
3052;SDS011;1536;51.098;6.414;2023-02-13T11:51:57;16.17;;;12.30;;
3052;SDS011;1536;51.098;6.414;2023-02-13T11:54:27;19.53;;;12.50;;
3052;SDS011;1536;51.098;6.414;2023-02-13T11:56:57;16.17;;;12.23;;
3052;SDS011;1536;51.098;6.414;2023-02-13T11:59:28;21.88;;;13.10;;
3052;SDS011;1536;51.098;6.414;2023-02-13T12:02:02;17.70;;;12.75;;
3052;SDS011;1536;51.098;6.414;2023-02-13T12:04:38;15.13;;;10.70;;
3052;SDS011;1536;51.098;6.414;2023-02-13T12:07:11;15.27;;;11.65;;
3052;SDS011;1536;51.098;6.414;2023-02-13T12:09:41;16.70;;;12.33;;
3052;SDS011;1536;51.098;6.414;2023-02-13T12:12:10;15.90;;;11.75;;
3052;SDS011;1536;51.098;6.414;2023-02-13T12:14:44;13.77;;;10.60;;
3052;SDS011;1536;51.098;6.414;2023-02-13T12:17:14;19.83;;;12.13;;
3052;SDS011;1536;51.098;6.414;2023-02-13T12:19:42;15.57;;;10.90;;
3052;SDS011;1536;51.098;6.414;2023-02-13T12:22:17;17.80;;;11.83;;
3052;SDS011;1536;51.098;6.414;2023-02-13T12:24:57;17.13;;;11.90;;
3052;SDS011;1536;51.098;6.414;2023-02-13T12:27:47;18.80;;;12.67;;
3052;SDS011;1536;51.098;6.414;2023-02-13T12:30:32;20.67;;;12.17;;
3052;SDS011;1536;51.098;6.414;2023-02-13T12:33:15;19.63;;;10.90;;
3052;SDS011;1536;51.098;6.414;2023-02-13T12:35:52;22.07;;;11.33;;
3052;SDS011;1536;51.098;6.414;2023-02-13T12:38:29;14.67;;;11.40;;
3052;SDS011;1536;51.098;6.414;2023-02-13T12:41:12;15.27;;;11.03;;
3052;SDS011;1536;51.098;6.414;2023-02-13T12:43:59;17.77;;;11.70;;
3052;SDS011;1536;51.098;6.414;2023-02-13T12:46:38;14.20;;;11.20;;
3052;SDS011;1536;51.098;6.414;2023-02-13T12:49:15;13.93;;;11.90;;
3052;SDS011;1536;51.098;6.414;2023-02-13T12:51:55;15.23;;;11.60;;
3052;SDS011;1536;51.098;6.414;2023-02-13T12:54:35;15.93;;;11.20;;
3052;SDS011;1536;51.098;6.414;2023-02-13T12:57:12;14.03;;;11.03;;
3052;SDS011;1536;51.098;6.414;2023-02-13T12:59:52;19.70;;;11.60;;
3052;SDS011;1536;51.098;6.414;2023-02-13T13:02:34;17.10;;;10.70;;
3052;SDS011;1536;51.098;6.414;2023-02-13T13:05:25;20.50;;;13.30;;
3052;SDS011;1536;51.098;6.414;2023-02-13T13:08:19;12.63;;;11.30;;
3052;SDS011;1536;51.098;6.414;2023-02-13T13:10:59;17.77;;;12.77;;
3052;SDS011;1536;51.098;6.414;2023-02-13T13:13:43;17.50;;;12.43;;
3052;SDS011;1536;51.098;6.414;2023-02-13T13:16:20;16.77;;;12.77;;
3052;SDS011;1536;51.098;6.414;2023-02-13T13:18:54;21.13;;;12.83;;
3052;SDS011;1536;51.098;6.414;2023-02-13T13:21:34;15.90;;;11.93;;
3052;SDS011;1536;51.098;6.414;2023-02-13T13:24:14;16.87;;;13.20;;
3052;SDS011;1536;51.098;6.414;2023-02-13T13:26:58;14.83;;;12.63;;
3052;SDS011;1536;51.098;6.414;2023-02-13T13:29:31;15.30;;;11.10;;
3052;SDS011;1536;51.098;6.414;2023-02-13T13:32:05;15.43;;;11.50;;
3052;SDS011;1536;51.098;6.414;2023-02-13T13:34:34;15.13;;;11.33;;
3052;SDS011;1536;51.098;6.414;2023-02-13T13:37:06;16.53;;;11.30;;
3052;SDS011;1536;51.098;6.414;2023-02-13T13:39:42;16.20;;;11.90;;
3052;SDS011;1536;51.098;6.414;2023-02-13T13:42:15;18.27;;;11.33;;
3052;SDS011;1536;51.098;6.414;2023-02-13T13:44:49;18.57;;;11.60;;
3052;SDS011;1536;51.098;6.414;2023-02-13T13:47:38;16.07;;;11.10;;
3052;SDS011;1536;51.098;6.414;2023-02-13T13:50:18;14.40;;;10.60;;
3052;SDS011;1536;51.098;6.414;2023-02-13T13:53:08;12.23;;;9.47;;
3052;SDS011;1536;51.098;6.414;2023-02-13T13:58:31;15.23;;;10.30;;
3052;SDS011;1536;51.098;6.414;2023-02-13T14:01:15;15.27;;;10.73;;
3052;SDS011;1536;51.098;6.414;2023-02-13T14:03:44;15.73;;;9.40;;
3052;SDS011;1536;51.098;6.414;2023-02-13T14:06:12;13.03;;;9.00;;
3052;SDS011;1536;51.098;6.414;2023-02-13T14:11:53;11.73;;;9.03;;
3052;SDS011;1536;51.098;6.414;2023-02-13T14:20:15;10.70;;;8.83;;
3052;SDS011;1536;51.098;6.414;2023-02-13T14:22:47;17.13;;;9.60;;
3052;SDS011;1536;51.098;6.414;2023-02-13T14:25:21;11.53;;;8.70;;
3052;SDS011;1536;51.098;6.414;2023-02-13T14:27:54;16.47;;;9.83;;
3052;SDS011;1536;51.098;6.414;2023-02-13T14:30:25;12.70;;;9.03;;
3052;SDS011;1536;51.098;6.414;2023-02-13T14:32:53;12.47;;;9.40;;
3052;SDS011;1536;51.098;6.414;2023-02-13T14:35:22;12.47;;;8.90;;
3052;SDS011;1536;51.098;6.414;2023-02-13T14:37:51;9.27;;;8.20;;
3052;SDS011;1536;51.098;6.414;2023-02-13T14:40:41;10.07;;;8.47;;
3052;SDS011;1536;51.098;6.414;2023-02-13T14:46:09;10.93;;;8.10;;
3052;SDS011;1536;51.098;6.414;2023-02-13T14:48:45;11.97;;;8.70;;
3052;SDS011;1536;51.098;6.414;2023-02-13T14:51:19;14.90;;;8.70;;
3052;SDS011;1536;51.098;6.414;2023-02-13T14:53:53;11.27;;;8.80;;
3052;SDS011;1536;51.098;6.414;2023-02-13T14:56:25;12.23;;;7.80;;
3052;SDS011;1536;51.098;6.414;2023-02-13T14:58:56;15.57;;;8.00;;
3052;SDS011;1536;51.098;6.414;2023-02-13T15:01:29;8.90;;;7.23;;
3052;SDS011;1536;51.098;6.414;2023-02-13T15:03:58;11.17;;;8.83;;
3052;SDS011;1536;51.098;6.414;2023-02-13T15:06:32;10.50;;;7.30;;
3052;SDS011;1536;51.098;6.414;2023-02-13T15:09:04;19.03;;;8.20;;
3052;SDS011;1536;51.098;6.414;2023-02-13T15:11:42;13.40;;;8.17;;
3052;SDS011;1536;51.098;6.414;2023-02-13T15:14:15;11.43;;;7.90;;
3052;SDS011;1536;51.098;6.414;2023-02-13T15:16:48;8.43;;;7.23;;
3052;SDS011;1536;51.098;6.414;2023-02-13T15:19:19;10.17;;;7.40;;
3052;SDS011;1536;51.098;6.414;2023-02-13T15:21:48;13.63;;;8.40;;
3052;SDS011;1536;51.098;6.414;2023-02-13T15:24:18;11.77;;;7.53;;
3052;SDS011;1536;51.098;6.414;2023-02-13T15:27:01;10.43;;;6.50;;
3052;SDS011;1536;51.098;6.414;2023-02-13T15:29:30;11.33;;;6.77;;
3052;SDS011;1536;51.098;6.414;2023-02-13T15:31:57;10.50;;;6.60;;
3052;SDS011;1536;51.098;6.414;2023-02-13T15:34:25;7.93;;;6.07;;
3052;SDS011;1536;51.098;6.414;2023-02-13T15:36:53;8.07;;;6.67;;
3052;SDS011;1536;51.098;6.414;2023-02-13T15:39:22;7.43;;;6.10;;
3052;SDS011;1536;51.098;6.414;2023-02-13T15:41:51;9.23;;;6.50;;